Yarmouth Port, MA (02675)

7:36 PM EST on January 29, 2015 (GMT -0500)
WA1FSC - Yarmouth Port | Change Station
CLOSE
Current Station
Personal Weather Station
Location: Yarmouth, MA
Elevation: 33 ft
Nearby Weather Stations

Elev 33 ft 41.71 °N, 70.23 °W | Updated 13 minutes ago

Clear
Clear
20.7 °F
Feels Like 21 °F
N
0.0
Wind Variable Wind from North

Today
High -- | Low -- °F
--% Chance of Precip.
Yesterday
High -- | Low -- °F
Precip. -- in
6:56 AM 4:52 PM
Waxing Gibbous, 78% visible
Pressure 30.16 in
Visibility 10.0 miles
Clouds Clear
Windchill 21 °F
Dew Point 18 °F
Humidity 88%
Rainfall 0.02 in
Snow Depth Not available.
UV 0 out of 12
Pollen .10 out of 12
Air Quality Not available.
Flu Activity Not available.
METAR KHYA 292356Z 00000KT 10SM CLR M07/M07 A3015 RMK AO2 SLP211 I1000 I6000 T10671067 10011 21078 58008

More Conditions Fewer Conditions

Pressure 30.16 in
Visibility 10.0 miles
Clouds Clear
Windchill 21 °F
Dew Point 18 °F
Humidity 88%
Rainfall 0.02 in
Snow Depth Not available.
UV 0 out of 12
Pollen .10 out of 12
Air Quality Not available.
Flu Activity Not available.
METAR KHYA 292356Z 00000KT 10SM CLR M07/M07 A3015 RMK AO2 SLP211 I1000 I6000 T10671067 10011 21078 58008

More Conditions Fewer Conditions

10-Day Weather Forecast

Almanac

Astronomy

Jan. 29, 2015 Rise Set
Actual Time
Civil Twilight
Nautical Twilight
Astronomical Twilight
Moon
Length of Visible Light
Length of Day
Tomorrow will be .
, % of the Moon is Illuminated

Today's Extremes

State Highs State Lows

Community

WunderPhotos

Upload Photos

1,791,656 photos uploaded!

WunderBlogs® & News

Nearby

Air Quality

  Air Quality AQ Index Pollutant
Not available.

Snow Depth

Station Depth Elevation

Earthquake Activity

City Distance Mag. Time & Date
Minimum magnitude displayed is 2.5.

Coastal Water Temperatures

Place Temperature

Nearby Weather Stations